Time;durP1;ratioP1;P1;durP2;ratioP2;P2;SDS_P1;SDS_P2;PMS_P1;PMS_P2;Temp;Humidity;BMP_temperature;BMP_pressure;BME280_temperature;BME280_humidity;BME280_pressure;Samples;Min_cycle;Max_cycle;Signal;HPM_P1;HPM_P2
2021/12/01 00:03:38;;;;;;;3.30;3.20;;;6.80;99.90;;;;;;10417620;28;20245;-81
2021/12/01 00:08:41;;;;;;;3.10;3.00;;;6.70;99.90;;;;;;10442441;28;20685;-82
2021/12/01 00:13:44;;;;;;;3.10;3.00;;;6.60;99.90;;;;;;10414634;28;20757;-81
2021/12/01 00:18:46;;;;;;;3.27;3.17;;;6.60;99.90;;;;;;10469932;28;20645;-82
2021/12/01 00:23:48;;;;;;;3.53;3.43;;;6.50;99.90;;;;;;10426752;28;20219;-82
2021/12/01 00:28:52;;;;;;;3.40;3.30;;;6.50;99.90;;;;;;10421737;28;20225;-81
2021/12/01 00:33:54;;;;;;;4.60;4.40;;;6.50;99.90;;;;;;10459140;28;20189;-81
2021/12/01 00:38:56;;;;;;;4.87;4.70;;;6.40;99.90;;;;;;10429359;28;20319;-83
2021/12/01 00:44:00;;;;;;;5.23;5.03;;;6.30;99.90;;;;;;10460768;28;20236;-81
2021/12/01 00:49:02;;;;;;;4.80;4.70;;;6.20;99.90;;;;;;10451622;28;20693;-81
2021/12/01 00:54:04;;;;;;;4.60;4.50;;;6.20;99.90;;;;;;10428241;28;20205;-81
2021/12/01 00:59:08;;;;;;;4.90;4.80;;;6.10;99.90;;;;;;10432392;28;20208;-82
2021/12/01 01:04:10;;;;;;;5.03;4.80;;;6.10;99.90;;;;;;10442469;28;20824;-82
2021/12/01 01:09:12;;;;;;;5.20;5.10;;;6.10;99.90;;;;;;10410969;28;20648;-82
2021/12/01 01:19:36;;;;;;;6.03;5.73;;;6.10;99.90;;;;;;10444872;28;20211;-82
2021/12/01 01:24:38;;;;;;;5.30;5.10;;;6.00;99.90;;;;;;10455549;28;20233;-81
2021/12/01 01:29:42;;;;;;;4.73;4.53;;;6.00;99.90;;;;;;10448822;28;20616;-83
2021/12/01 01:34:44;;;;;;;5.20;4.90;;;6.10;99.90;;;;;;10445007;28;20595;-81
2021/12/01 01:39:46;;;;;;;4.60;4.40;;;6.10;99.90;;;;;;10467435;28;20286;-81
2021/12/01 01:44:50;;;;;;;4.60;4.40;;;6.10;99.90;;;;;;10415928;28;20233;-82
2021/12/01 01:49:55;;;;;;;4.60;4.40;;;6.10;99.90;;;;;;10456315;28;20570;-83
2021/12/01 01:54:58;;;;;;;4.60;4.40;;;6.20;99.90;;;;;;10450109;28;20225;-82
2021/12/01 02:00:02;;;;;;;4.87;4.60;;;6.20;99.90;;;;;;10459950;28;20681;-82
2021/12/01 02:05:05;;;;;;;4.40;4.20;;;6.30;99.90;;;;;;10421674;28;20233;-82
2021/12/01 02:10:08;;;;;;;4.77;4.57;;;6.40;99.90;;;;;;10435779;28;20289;-83
2021/12/01 02:15:11;;;;;;;4.10;4.00;;;6.40;99.90;;;;;;10489200;28;20217;-81
2021/12/01 02:20:20;;;;;;;4.60;4.40;;;6.40;99.90;;;;;;10466975;28;20200;-82
2021/12/01 02:25:24;;;;;;;4.60;4.30;;;6.40;99.90;;;;;;10464848;28;20225;-81
2021/12/01 02:30:27;;;;;;;4.23;4.03;;;6.40;99.90;;;;;;10439596;28;20209;-81
2021/12/01 02:35:32;;;;;;;3.70;3.60;;;6.50;99.90;;;;;;10472798;22;20220;-85
2021/12/01 02:40:34;;;;;;;3.90;3.80;;;6.50;99.90;;;;;;10484601;28;20267;-83
2021/12/01 02:45:39;;;;;;;4.07;3.90;;;6.50;99.90;;;;;;10494980;28;20230;-84
2021/12/01 02:50:43;;;;;;;4.20;3.93;;;6.60;99.90;;;;;;10485760;28;20225;-85
2021/12/01 02:55:52;;;;;;;3.40;3.30;;;6.60;99.90;;;;;;10500657;28;20291;-85
2021/12/01 03:00:57;;;;;;;3.30;3.20;;;6.60;99.90;;;;;;10493016;28;20572;-85
2021/12/01 03:06:02;;;;;;;3.70;3.50;;;6.70;99.90;;;;;;10489833;28;20229;-85
2021/12/01 03:11:05;;;;;;;3.77;3.57;;;6.70;99.90;;;;;;10481732;28;20188;-85
2021/12/01 03:16:07;;;;;;;3.17;3.07;;;6.80;99.90;;;;;;10499777;28;20305;-84
2021/12/01 03:21:12;;;;;;;3.40;3.20;;;6.80;99.90;;;;;;10481754;28;20612;-84
2021/12/01 03:26:14;;;;;;;3.20;3.10;;;6.80;99.90;;;;;;10460177;28;20240;-85
2021/12/01 03:31:16;;;;;;;3.10;3.00;;;6.80;99.90;;;;;;10486786;28;20203;-83
2021/12/01 03:36:19;;;;;;;3.20;3.00;;;6.80;99.90;;;;;;10482574;28;20549;-84
2021/12/01 03:41:21;;;;;;;3.20;3.00;;;6.90;99.90;;;;;;10491026;28;20231;-83
2021/12/01 03:46:24;;;;;;;3.50;3.30;;;6.90;99.90;;;;;;10496520;28;20256;-83
2021/12/01 03:51:27;;;;;;;3.10;3.00;;;7.00;99.90;;;;;;10483546;28;20205;-84
2021/12/01 03:56:30;;;;;;;3.30;3.20;;;7.00;99.90;;;;;;10472442;28;20235;-85
2021/12/01 04:01:32;;;;;;;3.50;3.30;;;7.00;99.90;;;;;;10478657;28;20231;-85
2021/12/01 04:06:36;;;;;;;3.40;3.20;;;7.10;99.90;;;;;;10474420;28;20221;-85
2021/12/01 04:11:39;;;;;;;3.27;2.93;;;7.10;99.90;;;;;;10501537;28;20688;-85
2021/12/01 04:16:41;;;;;;;2.80;2.70;;;7.10;99.90;;;;;;10476947;28;20287;-84
2021/12/01 04:21:45;;;;;;;2.03;1.93;;;7.10;99.90;;;;;;10505549;28;20622;-84
2021/12/01 04:26:47;;;;;;;2.57;2.47;;;7.20;99.90;;;;;;10476884;28;20285;-85
2021/12/01 04:31:50;;;;;;;2.63;2.53;;;7.20;99.90;;;;;;10463296;28;20211;-84
2021/12/01 04:36:53;;;;;;;2.50;2.40;;;7.20;99.90;;;;;;10491276;28;20241;-85
2021/12/01 04:42:03;;;;;;;2.37;2.27;;;7.30;99.90;;;;;;10470913;28;20224;-84
2021/12/01 04:47:09;;;;;;;2.30;2.20;;;7.30;99.90;;;;;;10487656;28;20755;-84
2021/12/01 04:52:13;;;;;;;2.20;2.10;;;7.30;99.90;;;;;;10493545;28;20228;-84
2021/12/01 04:57:16;;;;;;;2.00;1.90;;;7.40;99.90;;;;;;10498246;28;20266;-84
2021/12/01 05:02:18;;;;;;;1.80;1.70;;;7.40;99.90;;;;;;10485081;28;20262;-85
2021/12/01 05:07:23;;;;;;;2.03;1.93;;;7.40;99.90;;;;;;10460565;28;20274;-85
2021/12/01 05:12:25;;;;;;;1.37;1.37;;;7.40;99.90;;;;;;10461135;28;20205;-85
2021/12/01 05:17:27;;;;;;;1.37;1.20;;;7.50;99.90;;;;;;10481421;28;20219;-85
2021/12/01 05:22:30;;;;;;;2.00;1.60;;;7.50;99.90;;;;;;10492166;28;20197;-85
2021/12/01 05:27:33;;;;;;;1.60;1.50;;;7.60;99.90;;;;;;10459034;28;20705;-84
2021/12/01 05:32:35;;;;;;;1.53;1.43;;;7.60;99.90;;;;;;10473069;28;20274;-84
2021/12/01 05:37:39;;;;;;;1.50;1.37;;;7.70;99.90;;;;;;10492337;28;20287;-84
2021/12/01 05:42:41;;;;;;;0.97;0.97;;;7.70;99.90;;;;;;10484731;28;20205;-85
2021/12/01 05:47:43;;;;;;;1.30;1.30;;;7.70;99.90;;;;;;10495682;28;20559;-84
2021/12/01 05:52:47;;;;;;;1.93;1.33;;;7.70;99.90;;;;;;10470983;28;20208;-84
2021/12/01 05:57:49;;;;;;;1.20;1.20;;;7.80;99.90;;;;;;10462497;28;20216;-86
2021/12/01 06:02:51;;;;;;;1.10;1.10;;;7.80;99.90;;;;;;10456165;28;20216;-85
2021/12/01 06:07:55;;;;;;;2.30;1.50;;;7.80;99.90;;;;;;10474646;28;20245;-82
2021/12/01 06:12:57;;;;;;;1.17;1.17;;;7.90;99.90;;;;;;10491331;28;20207;-84
2021/12/01 06:18:00;;;;;;;1.77;1.67;;;7.90;99.90;;;;;;10465409;28;20560;-82
2021/12/01 06:23:03;;;;;;;1.90;1.23;;;7.90;99.90;;;;;;10502554;28;20204;-83
2021/12/01 06:28:05;;;;;;;1.50;1.40;;;8.00;99.90;;;;;;10498862;28;20251;-83
2021/12/01 06:33:09;;;;;;;2.40;2.30;;;8.00;99.90;;;;;;10469337;28;20204;-82
2021/12/01 06:38:13;;;;;;;1.27;1.17;;;8.00;99.90;;;;;;10467659;28;20233;-82
2021/12/01 06:43:15;;;;;;;1.30;1.30;;;8.10;99.90;;;;;;10468804;28;20570;-82
2021/12/01 06:48:18;;;;;;;1.10;1.10;;;8.10;99.90;;;;;;10486677;28;20224;-82
2021/12/01 06:53:22;;;;;;;1.77;1.67;;;8.20;99.90;;;;;;10481786;28;20235;-81
2021/12/01 06:58:24;;;;;;;1.67;1.33;;;8.20;99.90;;;;;;10501176;28;20308;-81
2021/12/01 07:03:26;;;;;;;1.30;1.20;;;8.30;99.90;;;;;;10481623;28;20212;-82
2021/12/01 07:08:29;;;;;;;1.60;1.50;;;8.30;99.90;;;;;;10494373;28;20240;-82
2021/12/01 07:13:32;;;;;;;1.40;1.30;;;8.30;99.90;;;;;;10466139;28;20644;-82
2021/12/01 07:18:35;;;;;;;3.63;2.30;;;8.30;99.90;;;;;;10470450;28;20637;-82
2021/12/01 07:23:38;;;;;;;1.80;1.70;;;8.30;99.90;;;;;;10475420;28;20624;-82
2021/12/01 07:28:40;;;;;;;1.70;1.60;;;8.40;99.90;;;;;;10512555;28;20213;-82
2021/12/01 07:33:42;;;;;;;1.43;1.33;;;8.40;99.90;;;;;;10498640;28;20227;-81
2021/12/01 07:38:46;;;;;;;1.37;1.17;;;8.50;99.90;;;;;;10475874;28;20730;-81
2021/12/01 07:43:48;;;;;;;1.40;1.30;;;8.50;99.90;;;;;;10496303;28;20200;-81
2021/12/01 07:48:54;;;;;;;0.97;0.90;;;8.50;99.90;;;;;;10470699;28;20229;-82
2021/12/01 07:53:57;;;;;;;3.17;1.10;;;8.50;99.90;;;;;;10467864;28;20564;-82
2021/12/01 07:58:59;;;;;;;2.93;1.30;;;8.60;99.90;;;;;;10487795;28;20224;-81
2021/12/01 08:04:01;;;;;;;1.20;1.20;;;8.70;99.90;;;;;;10477233;28;20215;-81
2021/12/01 08:09:06;;;;;;;1.23;1.23;;;8.70;99.90;;;;;;10484485;28;20214;-80
2021/12/01 08:14:08;;;;;;;1.10;1.10;;;8.70;99.90;;;;;;10481086;28;20200;-81
2021/12/01 08:19:10;;;;;;;2.23;1.20;;;8.70;99.90;;;;;;10477290;28;20320;-81
2021/12/01 08:24:15;;;;;;;1.63;1.53;;;8.80;99.90;;;;;;10489454;28;20197;-80
2021/12/01 08:29:18;;;;;;;1.00;1.00;;;8.80;99.90;;;;;;10487890;28;20247;-80
2021/12/01 08:34:20;;;;;;;1.10;1.10;;;8.80;99.90;;;;;;10502227;28;20724;-81
2021/12/01 08:39:23;;;;;;;1.30;1.30;;;8.80;99.90;;;;;;10491494;22;20299;-79
2021/12/01 08:44:25;;;;;;;1.30;1.20;;;8.90;99.90;;;;;;10483547;28;20207;-77
2021/12/01 08:49:28;;;;;;;1.50;1.40;;;9.00;99.90;;;;;;10468891;28;20296;-78
2021/12/01 08:54:31;;;;;;;1.13;1.13;;;9.00;99.90;;;;;;10464804;28;20207;-79
2021/12/01 08:59:34;;;;;;;1.30;1.30;;;9.00;99.90;;;;;;10442057;28;20271;-79
2021/12/01 09:04:36;;;;;;;1.30;1.20;;;9.10;99.90;;;;;;10463219;28;20649;-79
2021/12/01 09:09:40;;;;;;;1.30;1.20;;;9.20;99.90;;;;;;10468328;28;20216;-80
2021/12/01 09:14:43;;;;;;;1.37;1.00;;;9.40;99.90;;;;;;10499363;28;20196;-79
2021/12/01 09:19:46;;;;;;;1.20;1.20;;;9.50;99.90;;;;;;10482437;28;20256;-79
2021/12/01 09:24:49;;;;;;;0.77;0.77;;;9.60;99.90;;;;;;10500033;28;20216;-79
2021/12/01 09:29:53;;;;;;;1.37;1.37;;;9.70;99.90;;;;;;10499105;28;20201;-78
2021/12/01 09:34:55;;;;;;;1.40;1.40;;;9.70;99.90;;;;;;10463804;28;20200;-80
2021/12/01 09:39:59;;;;;;;1.30;1.20;;;9.90;99.90;;;;;;10479385;28;20207;-81
2021/12/01 09:45:01;;;;;;;1.10;1.10;;;9.90;99.90;;;;;;10487735;28;20221;-80
2021/12/01 09:50:04;;;;;;;1.97;1.50;;;9.90;99.90;;;;;;10443154;28;20232;-80
2021/12/01 09:55:12;;;;;;;1.30;1.30;;;9.90;99.90;;;;;;10461285;28;20201;-79
2021/12/01 10:00:15;;;;;;;1.70;1.30;;;9.90;99.90;;;;;;10488124;28;20227;-79
2021/12/01 10:05:48;;;;;;;1.17;1.17;;;9.90;99.90;;;;;;10475483;28;20233;-79
2021/12/01 10:10:53;;;;;;;0.93;0.93;;;10.00;99.90;;;;;;10497810;28;20203;-78
2021/12/01 10:15:57;;;;;;;1.30;1.20;;;10.00;99.90;;;;;;10495985;28;20282;-79
2021/12/01 10:21:06;;;;;;;1.30;1.30;;;10.10;99.90;;;;;;10479446;28;20209;-79
2021/12/01 10:26:17;;;;;;;1.00;1.00;;;10.20;99.90;;;;;;10485864;28;20220;-79
2021/12/01 10:31:35;;;;;;;1.20;1.20;;;10.20;99.90;;;;;;10463910;28;20706;-78
2021/12/01 10:36:37;;;;;;;1.30;1.30;;;10.30;99.90;;;;;;10468403;28;20224;-78
2021/12/01 10:41:43;;;;;;;1.30;1.30;;;10.40;99.90;;;;;;10481571;28;20284;-80
2021/12/01 10:46:48;;;;;;;1.20;1.20;;;10.50;99.90;;;;;;10509618;28;20255;-79
2021/12/01 10:51:50;;;;;;;1.60;1.50;;;10.60;99.90;;;;;;10452255;28;20722;-79
2021/12/01 10:57:19;;;;;;;1.20;1.10;;;10.60;99.90;;;;;;10472744;28;20224;-77
2021/12/01 11:02:22;;;;;;;2.90;1.20;;;10.70;99.90;;;;;;10496033;28;20224;-79
2021/12/01 11:07:25;;;;;;;0.80;0.80;;;10.70;99.90;;;;;;10467854;28;20300;-79
2021/12/01 11:12:30;;;;;;;1.57;1.20;;;10.80;99.90;;;;;;10465841;28;20272;-78
2021/12/01 11:17:41;;;;;;;1.40;1.30;;;10.90;99.90;;;;;;10480148;28;20734;-79
2021/12/01 11:22:43;;;;;;;0.80;0.70;;;10.90;99.90;;;;;;10495198;28;20657;-79
2021/12/01 11:27:47;;;;;;;1.50;1.40;;;10.90;99.90;;;;;;10477580;28;20224;-79
2021/12/01 11:32:49;;;;;;;0.90;0.90;;;11.00;99.90;;;;;;10466507;28;20201;-79
2021/12/01 11:37:56;;;;;;;1.37;1.27;;;10.90;99.90;;;;;;10466877;28;20799;-78
2021/12/01 11:43:00;;;;;;;1.80;1.20;;;10.90;99.90;;;;;;10503481;28;20196;-79
2021/12/01 11:48:02;;;;;;;1.80;1.70;;;10.90;99.90;;;;;;10504126;28;20248;-79
2021/12/01 11:53:18;;;;;;;1.60;1.60;;;11.00;99.90;;;;;;10459208;28;20284;-79
2021/12/01 11:58:48;;;;;;;1.37;1.37;;;11.00;99.90;;;;;;10490615;28;20217;-79
2021/12/01 12:04:15;;;;;;;1.50;1.50;;;11.10;99.90;;;;;;10485748;28;20576;-79
2021/12/01 12:09:18;;;;;;;1.10;1.10;;;11.20;99.90;;;;;;10503981;28;20242;-79
2021/12/01 12:14:24;;;;;;;1.70;1.60;;;11.10;99.90;;;;;;10494152;28;20627;-80
2021/12/01 12:20:04;;;;;;;1.70;1.60;;;11.00;99.90;;;;;;10449237;28;20367;-78
2021/12/01 12:25:10;;;;;;;1.10;1.10;;;11.00;99.90;;;;;;10485942;28;20262;-79
2021/12/01 12:30:16;;;;;;;2.20;1.67;;;11.10;99.90;;;;;;10475739;28;20209;-78
2021/12/01 12:35:19;;;;;;;1.97;1.87;;;11.10;99.90;;;;;;10460544;28;20217;-77
2021/12/01 12:40:36;;;;;;;1.70;1.60;;;11.00;99.90;;;;;;10454109;28;20224;-77
2021/12/01 12:45:43;;;;;;;1.40;1.30;;;11.00;99.90;;;;;;10479307;28;20239;-79
2021/12/01 12:51:08;;;;;;;1.33;1.33;;;11.00;99.90;;;;;;10496403;28;20200;-78
2021/12/01 12:56:26;;;;;;;1.90;1.80;;;11.00;99.90;;;;;;10496004;28;20775;-78
2021/12/01 13:01:30;;;;;;;1.80;1.70;;;10.90;99.90;;;;;;10474660;28;20207;-78
2021/12/01 13:06:33;;;;;;;2.87;1.90;;;10.80;99.90;;;;;;10457674;28;20303;-78
2021/12/01 13:11:35;;;;;;;1.67;1.50;;;10.60;99.90;;;;;;10460863;28;20209;-80
2021/12/01 13:16:40;;;;;;;1.47;1.47;;;10.60;99.90;;;;;;10473974;28;20565;-80
2021/12/01 13:21:46;;;;;;;1.60;1.53;;;10.50;99.90;;;;;;10467018;28;20212;-79
2021/12/01 13:26:49;;;;;;;1.70;1.60;;;10.40;99.90;;;;;;10447881;28;20323;-79
2021/12/01 13:31:53;;;;;;;1.80;1.70;;;10.40;99.90;;;;;;10463497;28;20193;-80
2021/12/01 13:36:59;;;;;;;1.80;1.70;;;10.40;99.90;;;;;;10466582;28;20224;-79
2021/12/01 13:42:04;;;;;;;2.00;1.90;;;10.40;99.90;;;;;;10490356;28;20275;-79
2021/12/01 13:47:12;;;;;;;1.40;1.30;;;10.40;99.90;;;;;;10485298;28;20236;-80
2021/12/01 13:52:27;;;;;;;2.00;1.90;;;10.40;99.90;;;;;;10504707;28;20207;-78
2021/12/01 13:57:29;;;;;;;1.87;1.70;;;10.50;99.90;;;;;;10505921;28;20703;-80
2021/12/01 14:02:33;;;;;;;1.90;1.80;;;10.50;99.90;;;;;;10491153;28;20261;-79
2021/12/01 14:07:47;;;;;;;1.67;1.60;;;10.50;99.90;;;;;;10497359;28;20319;-79
2021/12/01 14:12:57;;;;;;;2.00;1.90;;;10.40;99.90;;;;;;10480482;28;20568;-78
2021/12/01 14:18:02;;;;;;;1.60;1.50;;;10.40;99.90;;;;;;10466129;28;20244;-78
2021/12/01 14:23:04;;;;;;;1.90;1.80;;;10.30;99.90;;;;;;10473383;28;20703;-79
2021/12/01 14:28:09;;;;;;;1.33;1.23;;;10.30;99.90;;;;;;10469827;28;20237;-77
2021/12/01 14:33:14;;;;;;;1.10;1.10;;;10.20;99.90;;;;;;10459697;28;20205;-78
2021/12/01 14:38:16;;;;;;;1.40;1.30;;;10.10;99.90;;;;;;10529126;22;20240;-82
2021/12/01 14:43:26;;;;;;;1.30;1.30;;;10.20;99.90;;;;;;10501162;28;20718;-82
2021/12/01 14:48:35;;;;;;;1.77;1.67;;;10.20;99.90;;;;;;10499018;28;20228;-83
2021/12/01 14:53:39;;;;;;;1.47;1.37;;;10.20;99.90;;;;;;10471238;28;20212;-83
2021/12/01 14:58:51;;;;;;;1.90;1.80;;;10.20;99.90;;;;;;10474773;28;20260;-82
2021/12/01 15:04:07;;;;;;;1.90;1.80;;;10.10;99.90;;;;;;10452654;28;20205;-82
2021/12/01 15:09:09;;;;;;;0.90;0.90;;;10.00;99.90;;;;;;10461027;28;20220;-82
2021/12/01 15:14:28;;;;;;;2.10;2.00;;;10.00;99.90;;;;;;10467276;28;20193;-83
2021/12/01 15:19:32;;;;;;;1.40;1.40;;;10.00;99.90;;;;;;10471537;28;20223;-82
2021/12/01 15:24:35;;;;;;;1.80;1.70;;;10.00;99.90;;;;;;10471279;28;20547;-83
2021/12/01 15:29:37;;;;;;;1.03;0.93;;;10.00;99.90;;;;;;10482340;28;20257;-81
2021/12/01 15:34:41;;;;;;;1.60;1.50;;;10.00;99.90;;;;;;10486853;28;20205;-82
2021/12/01 15:39:43;;;;;;;1.53;1.53;;;10.00;99.90;;;;;;10466727;28;20259;-82
2021/12/01 15:44:45;;;;;;;1.40;1.40;;;10.00;99.90;;;;;;10464655;28;20207;-82
2021/12/01 15:49:49;;;;;;;2.17;1.50;;;10.00;99.90;;;;;;10459012;28;20225;-82
2021/12/01 15:54:51;;;;;;;1.63;1.53;;;10.00;99.90;;;;;;10468358;28;20201;-82
2021/12/01 15:59:53;;;;;;;1.57;1.47;;;10.00;99.90;;;;;;10460779;28;20214;-81
2021/12/01 16:04:57;;;;;;;1.40;1.40;;;10.00;99.90;;;;;;10466367;28;20300;-82
2021/12/01 16:09:59;;;;;;;1.30;1.30;;;10.00;99.90;;;;;;10471726;28;20221;-83
2021/12/01 16:15:01;;;;;;;1.43;1.33;;;9.90;99.90;;;;;;10470348;28;20219;-83
2021/12/01 16:20:07;;;;;;;0.90;0.90;;;9.90;99.90;;;;;;10462862;28;20570;-82
2021/12/01 16:25:10;;;;;;;1.60;1.50;;;9.90;99.90;;;;;;10464071;28;20227;-83
2021/12/01 16:30:17;;;;;;;1.33;1.33;;;9.80;99.90;;;;;;10464652;28;20245;-82
2021/12/01 16:35:23;;;;;;;1.37;1.37;;;9.70;99.90;;;;;;10464684;28;20221;-82
2021/12/01 16:40:28;;;;;;;1.30;1.20;;;9.70;99.90;;;;;;10447939;28;20535;-83
2021/12/01 16:45:31;;;;;;;1.10;1.10;;;9.60;99.90;;;;;;10461667;28;20328;-83
2021/12/01 16:50:35;;;;;;;1.93;1.30;;;9.60;99.90;;;;;;10521143;28;20216;-83
2021/12/01 16:55:37;;;;;;;1.10;1.10;;;9.60;99.90;;;;;;10496332;28;20212;-83
2021/12/01 17:00:43;;;;;;;1.00;1.00;;;9.60;99.90;;;;;;10492573;28;20287;-84
2021/12/01 17:05:49;;;;;;;1.60;1.50;;;9.70;99.90;;;;;;10496087;28;20266;-83
2021/12/01 17:10:53;;;;;;;1.40;1.40;;;9.70;99.90;;;;;;10489033;28;20204;-84
2021/12/01 17:15:57;;;;;;;1.50;1.50;;;9.80;99.90;;;;;;10496433;28;20228;-83
2021/12/01 17:21:01;;;;;;;1.80;1.70;;;9.80;99.90;;;;;;10495984;28;20227;-84
2021/12/01 17:26:04;;;;;;;1.63;1.53;;;9.80;99.90;;;;;;10479005;28;20295;-83
2021/12/01 17:31:11;;;;;;;1.67;1.57;;;9.80;99.90;;;;;;10487028;28;20254;-83
2021/12/01 17:36:14;;;;;;;1.57;1.47;;;9.80;99.90;;;;;;10477646;28;20766;-84
2021/12/01 17:41:17;;;;;;;1.67;1.57;;;9.80;99.90;;;;;;10498589;28;20206;-83
2021/12/01 17:46:21;;;;;;;1.50;1.50;;;9.80;99.90;;;;;;10478618;28;20217;-84
2021/12/01 17:51:25;;;;;;;1.40;1.40;;;9.80;99.90;;;;;;10505432;28;20216;-83
2021/12/01 17:56:28;;;;;;;1.87;1.77;;;9.80;99.90;;;;;;10489207;28;20252;-84
2021/12/01 18:01:30;;;;;;;1.60;1.50;;;9.80;99.90;;;;;;10508814;28;20436;-84
2021/12/01 18:06:33;;;;;;;0.90;0.90;;;9.80;99.90;;;;;;10505061;28;20316;-84
2021/12/01 18:11:35;;;;;;;1.80;1.20;;;9.70;99.90;;;;;;10464313;28;20213;-85
2021/12/01 18:16:38;;;;;;;1.73;1.63;;;9.70;99.90;;;;;;10476398;28;20704;-84
2021/12/01 18:21:42;;;;;;;1.60;1.50;;;9.80;99.90;;;;;;10484983;28;20205;-84
2021/12/01 18:26:44;;;;;;;1.30;1.20;;;9.80;99.90;;;;;;10485602;28;20224;-84
2021/12/01 18:31:46;;;;;;;1.90;1.80;;;9.80;99.90;;;;;;10498330;28;20208;-85
2021/12/01 18:36:49;;;;;;;1.30;1.20;;;9.80;99.90;;;;;;10487092;28;20264;-84
2021/12/01 18:41:52;;;;;;;1.50;1.50;;;9.80;99.90;;;;;;10480724;28;20243;-84
2021/12/01 18:53:26;;;;;;;1.90;1.80;;;9.70;99.90;;;;;;10363260;28;20597;-85
2021/12/01 18:58:29;;;;;;;1.87;1.77;;;9.70;99.90;;;;;;10496466;28;20266;-85
2021/12/01 19:03:31;;;;;;;1.50;1.40;;;9.60;99.90;;;;;;10472109;28;20657;-85
2021/12/01 19:08:37;;;;;;;2.10;1.93;;;9.60;99.90;;;;;;10479194;28;20263;-85
2021/12/01 19:13:39;;;;;;;1.50;1.40;;;9.60;99.90;;;;;;10481940;28;20197;-85
2021/12/01 19:18:42;;;;;;;1.80;1.70;;;9.60;99.90;;;;;;10459123;28;20311;-85
2021/12/01 19:23:48;;;;;;;1.67;1.57;;;9.60;99.90;;;;;;10448394;28;20292;-85
2021/12/01 19:28:50;;;;;;;1.93;1.77;;;9.50;99.90;;;;;;10466042;28;20214;-86
2021/12/01 19:33:52;;;;;;;1.97;1.87;;;9.50;99.90;;;;;;10459893;28;20193;-85
2021/12/01 19:39:02;;;;;;;1.50;1.40;;;9.50;99.90;;;;;;10479545;28;20229;-86
2021/12/01 19:44:05;;;;;;;1.73;1.63;;;9.50;99.90;;;;;;10485973;28;20223;-85
2021/12/01 19:49:07;;;;;;;1.93;1.83;;;9.40;99.90;;;;;;10471174;28;20209;-84
2021/12/01 19:54:11;;;;;;;1.33;1.30;;;9.30;99.90;;;;;;10481004;28;20683;-85
2021/12/01 19:59:13;;;;;;;2.60;2.07;;;9.30;99.90;;;;;;10467408;28;20276;-85
2021/12/01 20:04:17;;;;;;;5.50;5.00;;;9.30;99.90;;;;;;10491995;28;20247;-85
2021/12/01 20:09:21;;;;;;;2.60;2.40;;;9.30;99.90;;;;;;10490869;28;20223;-86
2021/12/01 20:14:24;;;;;;;2.00;1.90;;;9.40;99.90;;;;;;10455182;28;20206;-85
2021/12/01 20:19:26;;;;;;;2.30;2.20;;;9.40;99.90;;;;;;10447755;28;20307;-85
2021/12/01 20:24:33;;;;;;;2.00;1.90;;;9.40;99.90;;;;;;10458100;28;20236;-85
2021/12/01 20:29:37;;;;;;;3.40;3.20;;;9.40;99.90;;;;;;10476469;28;20705;-85
2021/12/01 20:34:39;;;;;;;2.50;2.30;;;9.40;99.90;;;;;;10491538;28;20617;-86
2021/12/01 20:39:49;;;;;;;2.33;2.23;;;9.30;99.90;;;;;;10468005;28;20260;-86
2021/12/01 20:44:52;;;;;;;2.00;1.90;;;9.30;99.90;;;;;;10448064;28;20232;-85
2021/12/01 20:55:20;;;;;;;2.53;2.00;;;9.20;99.90;;;;;;10444870;28;20219;-85
2021/12/01 21:05:47;;;;;;;1.77;1.60;;;9.30;99.90;;;;;;10426889;28;20224;-84
2021/12/01 21:10:58;;;;;;;2.00;1.90;;;9.30;99.90;;;;;;10474986;28;20227;-85
2021/12/01 21:16:00;;;;;;;1.80;1.70;;;9.30;99.90;;;;;;10481653;28;20299;-85
2021/12/01 21:21:07;;;;;;;3.00;2.00;;;9.20;99.90;;;;;;10453946;28;20653;-85
2021/12/01 21:26:12;;;;;;;1.60;1.60;;;9.20;99.90;;;;;;10478736;28;20243;-86
2021/12/01 21:31:21;;;;;;;1.40;1.40;;;9.10;99.90;;;;;;10474089;28;20365;-85
2021/12/01 21:36:25;;;;;;;11.20;8.10;;;9.20;99.90;;;;;;10467184;28;20325;-86
2021/12/01 21:41:29;;;;;;;3.40;3.10;;;9.20;99.90;;;;;;10463348;28;20312;-85
2021/12/01 21:46:31;;;;;;;2.00;1.90;;;9.20;99.90;;;;;;10469375;28;20217;-85
2021/12/01 21:51:36;;;;;;;2.73;2.20;;;9.20;99.90;;;;;;10460929;28;20740;-86
2021/12/01 21:56:43;;;;;;;3.77;2.83;;;9.20;99.90;;;;;;10447577;28;20307;-84
2021/12/01 22:01:46;;;;;;;2.17;2.07;;;9.20;99.90;;;;;;10442135;28;20212;-84
2021/12/01 22:06:48;;;;;;;2.63;2.43;;;9.20;99.90;;;;;;10447329;28;20224;-86
2021/12/01 22:11:52;;;;;;;2.60;2.40;;;9.20;99.90;;;;;;10462931;28;21183;-85
2021/12/01 22:16:54;;;;;;;1.60;1.50;;;9.20;99.90;;;;;;10465729;28;20711;-85
2021/12/01 22:22:01;;;;;;;1.43;1.43;;;9.30;99.90;;;;;;10491463;28;20220;-85
2021/12/01 22:27:05;;;;;;;1.50;1.40;;;9.30;99.90;;;;;;10462215;28;20323;-85
2021/12/01 22:32:09;;;;;;;1.60;1.50;;;9.30;99.90;;;;;;10480174;28;20214;-86
2021/12/01 22:37:11;;;;;;;1.97;1.87;;;9.30;99.90;;;;;;10489754;28;20274;-85
2021/12/01 22:42:23;;;;;;;1.47;1.47;;;9.30;99.90;;;;;;10478215;28;20201;-87
2021/12/01 22:47:28;;;;;;;1.63;1.63;;;9.30;99.90;;;;;;10494723;28;20540;-86
2021/12/01 22:52:32;;;;;;;1.43;1.33;;;9.40;99.90;;;;;;10500249;28;20201;-84
2021/12/01 22:57:39;;;;;;;1.30;1.30;;;9.40;99.90;;;;;;10456755;28;20217;-86
2021/12/01 23:02:49;;;;;;;1.27;1.27;;;9.40;99.90;;;;;;10447902;28;20235;-85
2021/12/01 23:07:53;;;;;;;1.80;1.70;;;9.30;99.90;;;;;;10466035;28;20304;-86
2021/12/01 23:12:57;;;;;;;1.90;1.80;;;9.30;99.90;;;;;;10472095;28;20208;-85
2021/12/01 23:17:59;;;;;;;1.70;1.60;;;9.40;99.90;;;;;;10474249;28;20292;-85
2021/12/01 23:23:13;;;;;;;1.83;1.73;;;9.40;99.90;;;;;;10469990;28;20291;-84
2021/12/01 23:28:17;;;;;;;2.03;1.93;;;9.40;99.90;;;;;;10443820;28;20247;-84
2021/12/01 23:33:27;;;;;;;1.50;1.40;;;9.30;99.90;;;;;;10477687;28;20194;-83
2021/12/01 23:38:29;;;;;;;2.00;1.90;;;9.30;99.90;;;;;;10492119;28;20623;-84
2021/12/01 23:43:33;;;;;;;1.73;1.63;;;9.30;99.90;;;;;;10472862;28;20341;-84
2021/12/01 23:48:54;;;;;;;1.70;1.60;;;9.20;99.90;;;;;;10457144;28;20852;-84
2021/12/01 23:54:00;;;;;;;1.60;1.50;;;9.20;99.90;;;;;;10466233;28;20209;-85
2021/12/01 23:59:04;;;;;;;1.70;1.60;;;9.20;99.90;;;;;;10470482;28;20220;-86
